Dayton, OR (97114)

1:18 AM PST on December 22, 2014 (GMT -0800)
Unionvale | Change Station
CLOSE
Current Station
Personal Weather Station
Location: Dayton, OR
Elevation: 174 ft
Nearby Weather Stations
Active Advisory: Flood Warning, Areal Flood Watch Active Notice: Record Report

Elev 174 ft 45.14 °N, 123.06 °W | Updated 3 seconds ago

Overcast
Overcast
50.5 °F
Feels Like 50.5 °F
N
1.9
Wind Variable Wind from SSE
Gusts 3.8 mph

Today
High -- | Low -- °F
--% Chance of Precip.
Yesterday
High -- | Low -- °F
Precip. -- in
7:48 AM 4:33 PM
New Moon, 0% visible
Pressure 30.20 in
Visibility 10.0 miles
Clouds Mostly Cloudy 3300 ft
Overcast 5000 ft
Dew Point 48 °F
Humidity 92%
Rainfall 0.00 in
Snow Depth Not available.
UV 0 out of 12
Pollen .50 out of 12
Air Quality Not available.
Flu Activity Not available.
METAR KMMV 220853Z AUTO 22009KT 10SM BKN033 OVC050 11/09 A3020 RMK AO2 SLP227 T01110089 53008 $

More Conditions Fewer Conditions

Pressure 30.20 in
Visibility 10.0 miles
Clouds Mostly Cloudy 3300 ft
Overcast 5000 ft
Dew Point 48 °F
Humidity 92%
Rainfall 0.00 in
Snow Depth Not available.
UV 0 out of 12
Pollen .50 out of 12
Air Quality Not available.
Flu Activity Not available.
METAR KMMV 220853Z AUTO 22009KT 10SM BKN033 OVC050 11/09 A3020 RMK AO2 SLP227 T01110089 53008 $

More Conditions Fewer Conditions

10-Day Weather Forecast

Almanac

Astronomy

Dec. 22, 2014 Rise Set
Actual Time
Civil Twilight
Nautical Twilight
Astronomical Twilight
Moon
Length of Visible Light
Length of Day
Tomorrow will be .
, % of the Moon is Illuminated

Today's Extremes

State Highs State Lows

Community

WunderPhotos

Upload Photos

1,779,580 photos uploaded!

WunderBlogs® & News

Nearby

Air Quality

  Air Quality AQ Index Pollutant
Not available.

Snow Depth

Station Depth Elevation

Earthquake Activity

City Distance Mag. Time & Date
Minimum magnitude displayed is 2.5.

Coastal Water Temperatures

Place Temperature

Nearby Weather Stations